Time;durP1;ratioP1;P1;durP2;ratioP2;P2;SDS_P1;SDS_P2;PMS_P1;PMS_P2;Temp;Humidity;BMP_temperature;BMP_pressure;BME280_temperature;BME280_humidity;BME280_pressure;Samples;Min_cycle;Max_cycle;Signal;HPM_P1;HPM_P2
2021/09/29 16:20:14;;;;;;;3.58;0.90;;;;;;;;;;6210843;23;20696;-50
2021/09/29 16:30:47;;;;;;;5.43;1.27;;;;;;;;;;6210964;23;20343;-49
2021/09/29 16:35:54;;;;;;;3.53;0.90;;;;;;;;;;6211093;23;20427;-51
2021/09/29 16:38:20;;;;;;;3.78;0.90;;;;;;;;;;6211278;23;20352;-51
2021/09/29 16:40:46;;;;;;;3.13;0.90;;;;;;;;;;6211073;23;20399;-53
2021/09/29 16:43:18;;;;;;;4.32;1.30;;;;;;;;;;6210969;23;20622;-50
2021/09/29 16:45:45;;;;;;;5.55;1.45;;;;;;;;;;6211283;23;20347;-50
2021/09/29 16:48:15;;;;;;;6.78;1.50;;;;;;;;;;6209515;23;20406;-52
2021/09/29 16:51:00;;;;;;;6.25;1.67;;;;;;;;;;6209040;23;20386;-53
2021/09/29 16:53:30;;;;;;;4.70;1.30;;;;;;;;;;6211284;23;20379;-50
2021/09/29 16:56:00;;;;;;;6.25;1.33;;;;;;;;;;6211039;23;20776;-53
2021/09/29 16:58:36;;;;;;;4.18;1.20;;;;;;;;;;6209301;23;20423;-52
2021/09/29 17:01:11;;;;;;;2.90;0.90;;;;;;;;;;6208337;23;20372;-58
2021/09/29 17:03:38;;;;;;;5.40;1.00;;;;;;;;;;6208766;23;20764;-59
2021/09/29 17:06:04;;;;;;;3.83;1.10;;;;;;;;;;6211137;23;20411;-56
2021/09/29 17:08:31;;;;;;;3.22;0.95;;;;;;;;;;6211245;23;20791;-50
2021/09/29 17:10:58;;;;;;;4.28;0.80;;;;;;;;;;6208922;23;20393;-52
2021/09/29 17:13:25;;;;;;;2.75;0.88;;;;;;;;;;6209324;23;20352;-49
2021/09/29 17:15:56;;;;;;;3.10;0.90;;;;;;;;;;6209262;23;20453;-49
2021/09/29 17:18:23;;;;;;;2.60;0.90;;;;;;;;;;6209838;23;20382;-51
2021/09/29 17:20:50;;;;;;;3.33;0.90;;;;;;;;;;6208438;23;20789;-53
2021/09/29 17:23:16;;;;;;;3.17;0.80;;;;;;;;;;6210751;23;20363;-51
2021/09/29 17:25:42;;;;;;;4.35;1.10;;;;;;;;;;6211718;23;20335;-50
2021/09/29 17:28:14;;;;;;;4.82;1.08;;;;;;;;;;6210750;23;20440;-51
2021/09/29 17:30:42;;;;;;;2.53;0.85;;;;;;;;;;6211242;23;20427;-51
2021/09/29 17:54:06;;;;;;;2.93;0.93;;;;;;;;;;6209742;23;20678;-52
2021/09/29 17:56:32;;;;;;;2.85;0.90;;;;;;;;;;6210316;23;20422;-51
2021/09/29 17:58:58;;;;;;;3.90;1.20;;;;;;;;;;6209638;23;20410;-51
2021/09/29 18:01:27;;;;;;;4.38;1.25;;;;;;;;;;6210251;23;20360;-50
2021/09/29 18:06:40;;;;;;;4.78;1.40;;;;;;;;;;6210139;23;20347;-53
2021/09/29 18:09:10;;;;;;;4.07;1.15;;;;;;;;;;6210027;23;20794;-49
2021/09/29 18:11:39;;;;;;;4.20;1.20;;;;;;;;;;6210065;23;20787;-53
2021/09/29 18:14:10;;;;;;;4.25;1.75;;;;;;;;;;6210396;23;20417;-52
2021/09/29 18:16:36;;;;;;;5.22;1.90;;;;;;;;;;6210276;23;20331;-50
2021/09/29 18:19:02;;;;;;;5.55;2.15;;;;;;;;;;6210234;23;20420;-52
2021/09/29 18:21:28;;;;;;;6.25;2.20;;;;;;;;;;6210655;23;20336;-52
2021/09/29 18:23:58;;;;;;;5.53;2.47;;;;;;;;;;6209611;23;20471;-53
2021/09/29 18:26:26;;;;;;;6.07;1.90;;;;;;;;;;6210195;23;20351;-53
2021/09/29 18:28:53;;;;;;;3.95;1.73;;;;;;;;;;6210655;23;20362;-54
2021/09/29 18:31:20;;;;;;;6.13;2.17;;;;;;;;;;6207558;23;20340;-54
2021/09/29 18:33:46;;;;;;;5.63;1.95;;;;;;;;;;6209199;23;20348;-51
2021/09/29 18:36:14;;;;;;;5.63;2.20;;;;;;;;;;6208687;23;20331;-53
2021/09/29 18:38:41;;;;;;;4.07;1.75;;;;;;;;;;6210409;23;20371;-49
2021/09/29 18:41:10;;;;;;;6.07;2.10;;;;;;;;;;6210057;23;20959;-50
2021/09/29 18:43:37;;;;;;;5.82;2.08;;;;;;;;;;6210788;23;20336;-50
2021/09/29 18:46:06;;;;;;;4.68;1.90;;;;;;;;;;6211775;23;20351;-49
2021/09/29 18:48:39;;;;;;;5.03;2.20;;;;;;;;;;6211588;23;20354;-53
2021/09/29 18:51:13;;;;;;;4.97;2.60;;;;;;;;;;6212463;23;20339;-53
2021/09/29 18:53:54;;;;;;;6.50;2.40;;;;;;;;;;6212135;23;20351;-49
2021/09/29 19:07:46;;;;;;;6.50;3.20;;;;;;;;;;6212036;23;20395;-53
2021/09/29 19:10:12;;;;;;;6.90;2.78;;;;;;;;;;6211957;23;20395;-52
2021/09/29 19:12:46;;;;;;;5.72;2.63;;;;;;;;;;6212802;23;20464;-52
2021/09/29 19:15:12;;;;;;;6.57;2.60;;;;;;;;;;6212353;23;20627;-50
2021/09/29 19:17:40;;;;;;;5.38;2.22;;;;;;;;;;6212537;23;20340;-51
2021/09/29 19:20:09;;;;;;;3.95;1.80;;;;;;;;;;6211726;23;20407;-49
2021/09/29 19:22:36;;;;;;;5.05;1.90;;;;;;;;;;6212005;23;20340;-51
2021/09/29 19:25:03;;;;;;;5.75;2.50;;;;;;;;;;6161617;23;20471;-50
2021/09/29 19:27:33;;;;;;;5.43;2.08;;;;;;;;;;6212565;23;20375;-50
2021/09/29 19:30:03;;;;;;;5.07;2.20;;;;;;;;;;6212147;23;20367;-50
2021/09/29 19:32:34;;;;;;;3.88;1.90;;;;;;;;;;6210635;23;20344;-50
2021/09/29 19:35:00;;;;;;;6.72;2.58;;;;;;;;;;6209952;23;20455;-53
2021/09/29 19:37:26;;;;;;;6.35;2.70;;;;;;;;;;6210716;23;20347;-51
2021/09/29 19:39:53;;;;;;;5.70;2.53;;;;;;;;;;6211851;23;20403;-52
2021/09/29 19:42:19;;;;;;;7.40;3.40;;;;;;;;;;6212109;23;20374;-50
2021/09/29 19:44:47;;;;;;;7.10;3.20;;;;;;;;;;6211369;23;20681;-49
2021/09/29 19:47:27;;;;;;;7.22;3.15;;;;;;;;;;6211137;23;20340;-48
2021/09/29 19:50:14;;;;;;;7.95;3.40;;;;;;;;;;6210048;23;20336;-52
2021/09/29 20:02:45;;;;;;;5.53;3.00;;;;;;;;;;6211374;23;20344;-51
2021/09/29 20:09:40;;;;;;;9.63;5.68;;;;;;;;;;6211188;23;20823;-49
2021/09/29 20:12:10;;;;;;;10.57;5.83;;;;;;;;;;6210593;23;20371;-53
2021/09/29 20:14:37;;;;;;;10.85;5.65;;;;;;;;;;6211656;23;20332;-49
2021/09/29 20:17:06;;;;;;;10.85;5.50;;;;;;;;;;6208331;23;20383;-49
2021/09/29 20:19:35;;;;;;;10.02;5.38;;;;;;;;;;6211079;23;20390;-50
2021/09/29 20:22:04;;;;;;;9.25;4.90;;;;;;;;;;6211013;23;20355;-48
2021/09/29 20:24:33;;;;;;;9.27;5.03;;;;;;;;;;6209770;23;20474;-50
2021/09/29 20:27:01;;;;;;;8.90;5.03;;;;;;;;;;6211327;23;20411;-52
2021/09/29 20:29:28;;;;;;;8.57;4.73;;;;;;;;;;6211508;23;20358;-51
2021/09/29 20:31:54;;;;;;;9.15;4.20;;;;;;;;;;6210923;23;20394;-53
2021/09/29 20:42:23;;;;;;;8.93;4.63;;;;;;;;;;6210782;23;20367;-48
2021/09/29 20:44:49;;;;;;;7.13;3.57;;;;;;;;;;6209738;23;20363;-51
2021/09/29 20:47:21;;;;;;;6.97;3.63;;;;;;;;;;6210911;23;20336;-52
2021/09/29 20:49:47;;;;;;;7.50;3.83;;;;;;;;;;6210243;23;20343;-53
2021/09/29 20:52:14;;;;;;;5.63;3.47;;;;;;;;;;6210875;23;20423;-50
2021/09/29 20:54:41;;;;;;;8.75;3.80;;;;;;;;;;6210636;23;20426;-53
2021/09/29 20:57:07;;;;;;;8.40;3.97;;;;;;;;;;6210321;23;20348;-53
2021/09/29 20:59:33;;;;;;;7.20;4.00;;;;;;;;;;6210309;23;20408;-48
2021/09/29 21:01:59;;;;;;;8.40;3.70;;;;;;;;;;6210138;23;20347;-51
2021/09/29 21:04:28;;;;;;;7.75;4.13;;;;;;;;;;6210547;23;20332;-48
2021/09/29 21:06:59;;;;;;;11.70;4.57;;;;;;;;;;6209927;23;20344;-52
2021/09/29 21:09:26;;;;;;;9.48;4.38;;;;;;;;;;6209097;23;20351;-49
2021/09/29 21:12:12;;;;;;;10.43;3.87;;;;;;;;;;6208855;23;20668;-47
2021/09/29 21:20:09;;;;;;;9.98;4.15;;;;;;;;;;6208696;23;20401;-49
2021/09/29 21:22:36;;;;;;;8.70;4.15;;;;;;;;;;6208788;23;20406;-50
2021/09/29 21:25:07;;;;;;;8.43;4.00;;;;;;;;;;6208823;23;20344;-52
2021/09/29 21:27:33;;;;;;;11.00;4.07;;;;;;;;;;6210330;23;20505;-50
2021/09/29 21:29:59;;;;;;;8.83;3.90;;;;;;;;;;6211355;23;20347;-49
2021/09/29 21:32:25;;;;;;;8.30;3.58;;;;;;;;;;6210393;23;20417;-46
2021/09/29 21:34:59;;;;;;;10.68;3.40;;;;;;;;;;6210861;23;20346;-49
